Scales Mound, Illinois
Current Conditions -  °F | °C
As of 10:35 AM on Tuesday 27 Jan 2015 (Local Time) from KPVB Reporting Station
Overcast Overcast  
Wind Chill: 19°   Ceiling: 1500
Heat Index: 27°   Visibility: 10mi
Dew Point: 23°   Wind: 8mph
Humidity: 84%   Direction: 350°N
Pressure: 30.17"   Gusts: NA
Location:  42.48°N, 90.25°W
Report Text: KPVB 271635Z AUTO 35007KT 10SM OVC015 M03/M05 A3017 RMK AO1 T10261050
Loading
Personal Weather Stations






























Interactive Weather Map New forecast layout! Learn more

10-Day Weather Forecast

Advertisements
Track Severe Weather on mobile